sensor_id;sensor_type;location;lat;lon;timestamp;P1;durP1;ratioP1;P2;durP2;ratioP2
12703;SDS011;6416;52.182;7.650;2023-05-10T00:01:23;1.40;;;1.30;;
12703;SDS011;6416;52.182;7.650;2023-05-10T00:03:48;2.85;;;1.30;;
12703;SDS011;6416;52.182;7.650;2023-05-10T00:06:14;1.55;;;1.45;;
12703;SDS011;6416;52.182;7.650;2023-05-10T00:08:39;1.52;;;1.42;;
12703;SDS011;6416;52.182;7.650;2023-05-10T00:11:05;1.45;;;1.35;;
12703;SDS011;6416;52.182;7.650;2023-05-10T00:13:30;1.48;;;1.35;;
12703;SDS011;6416;52.182;7.650;2023-05-10T00:15:56;1.58;;;1.48;;
12703;SDS011;6416;52.182;7.650;2023-05-10T00:18:22;1.48;;;1.38;;
12703;SDS011;6416;52.182;7.650;2023-05-10T00:20:47;1.40;;;1.30;;
12703;SDS011;6416;52.182;7.650;2023-05-10T00:23:13;1.42;;;1.33;;
12703;SDS011;6416;52.182;7.650;2023-05-10T00:25:38;1.50;;;1.40;;
12703;SDS011;6416;52.182;7.650;2023-05-10T00:28:04;1.40;;;1.30;;
12703;SDS011;6416;52.182;7.650;2023-05-10T00:30:29;1.50;;;1.40;;
12703;SDS011;6416;52.182;7.650;2023-05-10T00:32:54;2.20;;;2.00;;
12703;SDS011;6416;52.182;7.650;2023-05-10T00:35:20;1.67;;;1.58;;
12703;SDS011;6416;52.182;7.650;2023-05-10T00:37:45;3.17;;;1.63;;
12703;SDS011;6416;52.182;7.650;2023-05-10T00:40:11;1.60;;;1.50;;
12703;SDS011;6416;52.182;7.650;2023-05-10T00:42:36;1.55;;;1.45;;
12703;SDS011;6416;52.182;7.650;2023-05-10T00:45:02;1.75;;;1.65;;
12703;SDS011;6416;52.182;7.650;2023-05-10T00:47:28;2.17;;;2.08;;
12703;SDS011;6416;52.182;7.650;2023-05-10T00:49:54;2.00;;;1.90;;
12703;SDS011;6416;52.182;7.650;2023-05-10T00:52:19;2.08;;;1.98;;
12703;SDS011;6416;52.182;7.650;2023-05-10T00:54:45;2.58;;;2.38;;
12703;SDS011;6416;52.182;7.650;2023-05-10T00:57:11;2.20;;;2.10;;
12703;SDS011;6416;52.182;7.650;2023-05-10T00:59:37;2.35;;;2.22;;
12703;SDS011;6416;52.182;7.650;2023-05-10T01:02:02;2.35;;;2.25;;
12703;SDS011;6416;52.182;7.650;2023-05-10T01:04:28;2.70;;;2.50;;
12703;SDS011;6416;52.182;7.650;2023-05-10T01:06:53;2.53;;;2.33;;
12703;SDS011;6416;52.182;7.650;2023-05-10T01:09:19;2.83;;;2.63;;
12703;SDS011;6416;52.182;7.650;2023-05-10T01:11:46;2.75;;;2.55;;
12703;SDS011;6416;52.182;7.650;2023-05-10T01:14:13;2.97;;;2.78;;
12703;SDS011;6416;52.182;7.650;2023-05-10T01:16:42;2.90;;;2.70;;
12703;SDS011;6416;52.182;7.650;2023-05-10T01:19:22;2.42;;;2.17;;
12703;SDS011;6416;52.182;7.650;2023-05-10T01:30:02;4.73;;;2.30;;
12703;SDS011;6416;52.182;7.650;2023-05-10T01:32:50;2.33;;;2.22;;
12703;SDS011;6416;52.182;7.650;2023-05-10T01:46:27;2.17;;;1.98;;
12703;SDS011;6416;52.182;7.650;2023-05-10T01:48:58;2.42;;;2.20;;
12703;SDS011;6416;52.182;7.650;2023-05-10T01:51:27;3.15;;;2.00;;
12703;SDS011;6416;52.182;7.650;2023-05-10T01:54:00;2.22;;;2.10;;
12703;SDS011;6416;52.182;7.650;2023-05-10T01:56:28;2.15;;;1.80;;
12703;SDS011;6416;52.182;7.650;2023-05-10T01:58:56;1.85;;;1.75;;
12703;SDS011;6416;52.182;7.650;2023-05-10T02:01:24;1.73;;;1.63;;
12703;SDS011;6416;52.182;7.650;2023-05-10T02:03:51;1.90;;;1.80;;
12703;SDS011;6416;52.182;7.650;2023-05-10T02:06:20;1.80;;;1.70;;
12703;SDS011;6416;52.182;7.650;2023-05-10T02:08:47;1.83;;;1.73;;
12703;SDS011;6416;52.182;7.650;2023-05-10T02:11:14;2.03;;;1.93;;
12703;SDS011;6416;52.182;7.650;2023-05-10T02:13:39;1.98;;;1.88;;
12703;SDS011;6416;52.182;7.650;2023-05-10T02:16:07;2.20;;;2.10;;
12703;SDS011;6416;52.182;7.650;2023-05-10T02:18:33;2.53;;;2.33;;
12703;SDS011;6416;52.182;7.650;2023-05-10T02:21:01;2.40;;;2.20;;
12703;SDS011;6416;52.182;7.650;2023-05-10T02:23:27;3.50;;;2.30;;
12703;SDS011;6416;52.182;7.650;2023-05-10T02:25:54;4.10;;;2.20;;
12703;SDS011;6416;52.182;7.650;2023-05-10T02:28:22;2.35;;;2.15;;
12703;SDS011;6416;52.182;7.650;2023-05-10T02:30:50;2.88;;;2.67;;
12703;SDS011;6416;52.182;7.650;2023-05-10T02:33:17;2.40;;;2.30;;
12703;SDS011;6416;52.182;7.650;2023-05-10T02:35:43;3.42;;;2.33;;
12703;SDS011;6416;52.182;7.650;2023-05-10T02:38:10;2.75;;;2.53;;
12703;SDS011;6416;52.182;7.650;2023-05-10T02:40:36;3.27;;;3.07;;
12703;SDS011;6416;52.182;7.650;2023-05-10T02:43:02;3.10;;;2.90;;
12703;SDS011;6416;52.182;7.650;2023-05-10T02:45:31;4.40;;;3.27;;
12703;SDS011;6416;52.182;7.650;2023-05-10T02:47:59;3.43;;;3.13;;
12703;SDS011;6416;52.182;7.650;2023-05-10T02:50:25;3.30;;;3.10;;
12703;SDS011;6416;52.182;7.650;2023-05-10T02:52:54;3.00;;;2.80;;
12703;SDS011;6416;52.182;7.650;2023-05-10T02:55:25;3.57;;;3.33;;
12703;SDS011;6416;52.182;7.650;2023-05-10T02:57:56;3.50;;;3.30;;
12703;SDS011;6416;52.182;7.650;2023-05-10T03:00:25;3.43;;;3.23;;
12703;SDS011;6416;52.182;7.650;2023-05-10T03:02:51;9.63;;;3.73;;
12703;SDS011;6416;52.182;7.650;2023-05-10T03:05:16;3.30;;;3.10;;
12703;SDS011;6416;52.182;7.650;2023-05-10T03:07:42;3.77;;;3.47;;
12703;SDS011;6416;52.182;7.650;2023-05-10T03:10:08;5.27;;;3.20;;
12703;SDS011;6416;52.182;7.650;2023-05-10T03:12:52;4.73;;;3.37;;
12703;SDS011;6416;52.182;7.650;2023-05-10T03:18:33;3.23;;;2.93;;
12703;SDS011;6416;52.182;7.650;2023-05-10T03:21:20;3.10;;;2.90;;
12703;SDS011;6416;52.182;7.650;2023-05-10T03:23:51;3.10;;;2.90;;
12703;SDS011;6416;52.182;7.650;2023-05-10T03:26:40;3.27;;;3.03;;
12703;SDS011;6416;52.182;7.650;2023-05-10T03:29:08;2.97;;;2.77;;
12703;SDS011;6416;52.182;7.650;2023-05-10T03:31:34;3.17;;;2.93;;
12703;SDS011;6416;52.182;7.650;2023-05-10T03:34:00;3.03;;;2.83;;
12703;SDS011;6416;52.182;7.650;2023-05-10T03:36:25;3.17;;;2.97;;
12703;SDS011;6416;52.182;7.650;2023-05-10T03:38:51;3.40;;;3.10;;
12703;SDS011;6416;52.182;7.650;2023-05-10T03:41:16;3.37;;;3.07;;
12703;SDS011;6416;52.182;7.650;2023-05-10T03:43:42;3.80;;;3.50;;
12703;SDS011;6416;52.182;7.650;2023-05-10T03:46:07;3.30;;;3.10;;
12703;SDS011;6416;52.182;7.650;2023-05-10T03:48:33;3.47;;;3.27;;
12703;SDS011;6416;52.182;7.650;2023-05-10T03:50:58;3.07;;;2.87;;
12703;SDS011;6416;52.182;7.650;2023-05-10T03:53:24;3.03;;;2.83;;
12703;SDS011;6416;52.182;7.650;2023-05-10T03:55:50;5.20;;;3.47;;
12703;SDS011;6416;52.182;7.650;2023-05-10T03:58:15;3.73;;;3.43;;
12703;SDS011;6416;52.182;7.650;2023-05-10T04:00:41;3.20;;;3.00;;
12703;SDS011;6416;52.182;7.650;2023-05-10T04:03:06;3.70;;;3.40;;
12703;SDS011;6416;52.182;7.650;2023-05-10T04:05:32;3.90;;;3.60;;
12703;SDS011;6416;52.182;7.650;2023-05-10T04:07:57;3.20;;;3.00;;
12703;SDS011;6416;52.182;7.650;2023-05-10T04:10:23;3.40;;;3.20;;
12703;SDS011;6416;52.182;7.650;2023-05-10T04:12:48;3.53;;;3.33;;
12703;SDS011;6416;52.182;7.650;2023-05-10T04:15:14;4.03;;;3.63;;
12703;SDS011;6416;52.182;7.650;2023-05-10T04:17:39;3.73;;;3.43;;
12703;SDS011;6416;52.182;7.650;2023-05-10T04:20:05;4.27;;;3.87;;
12703;SDS011;6416;52.182;7.650;2023-05-10T04:22:31;3.88;;;3.58;;
12703;SDS011;6416;52.182;7.650;2023-05-10T04:24:57;3.90;;;3.60;;
12703;SDS011;6416;52.182;7.650;2023-05-10T04:27:22;3.87;;;3.57;;
12703;SDS011;6416;52.182;7.650;2023-05-10T04:29:48;3.63;;;3.33;;
12703;SDS011;6416;52.182;7.650;2023-05-10T04:32:13;3.33;;;3.13;;
12703;SDS011;6416;52.182;7.650;2023-05-10T04:34:41;3.00;;;2.80;;
12703;SDS011;6416;52.182;7.650;2023-05-10T04:37:08;3.53;;;3.23;;
12703;SDS011;6416;52.182;7.650;2023-05-10T04:39:33;3.55;;;3.25;;
12703;SDS011;6416;52.182;7.650;2023-05-10T04:41:58;3.73;;;3.43;;
12703;SDS011;6416;52.182;7.650;2023-05-10T04:44:24;3.60;;;3.30;;
12703;SDS011;6416;52.182;7.650;2023-05-10T04:46:49;3.73;;;3.40;;
12703;SDS011;6416;52.182;7.650;2023-05-10T04:49:15;3.90;;;3.60;;
12703;SDS011;6416;52.182;7.650;2023-05-10T04:51:40;4.27;;;3.97;;
12703;SDS011;6416;52.182;7.650;2023-05-10T04:54:06;4.60;;;4.20;;
12703;SDS011;6416;52.182;7.650;2023-05-10T04:56:31;4.70;;;4.30;;
12703;SDS011;6416;52.182;7.650;2023-05-10T04:58:57;4.30;;;4.00;;
12703;SDS011;6416;52.182;7.650;2023-05-10T05:01:23;4.17;;;3.87;;
12703;SDS011;6416;52.182;7.650;2023-05-10T05:03:48;5.00;;;4.50;;
12703;SDS011;6416;52.182;7.650;2023-05-10T05:06:13;5.10;;;4.70;;
12703;SDS011;6416;52.182;7.650;2023-05-10T05:08:39;5.10;;;4.70;;
12703;SDS011;6416;52.182;7.650;2023-05-10T05:11:04;5.00;;;4.60;;
12703;SDS011;6416;52.182;7.650;2023-05-10T05:13:30;4.77;;;4.43;;
12703;SDS011;6416;52.182;7.650;2023-05-10T05:15:55;5.17;;;4.67;;
12703;SDS011;6416;52.182;7.650;2023-05-10T05:18:21;5.60;;;5.03;;
12703;SDS011;6416;52.182;7.650;2023-05-10T05:20:46;5.33;;;4.93;;
12703;SDS011;6416;52.182;7.650;2023-05-10T05:23:13;5.20;;;4.80;;
12703;SDS011;6416;52.182;7.650;2023-05-10T05:25:38;5.20;;;4.70;;
12703;SDS011;6416;52.182;7.650;2023-05-10T05:28:04;5.47;;;4.90;;
12703;SDS011;6416;52.182;7.650;2023-05-10T05:30:29;5.93;;;5.43;;
12703;SDS011;6416;52.182;7.650;2023-05-10T05:32:55;5.63;;;5.13;;
12703;SDS011;6416;52.182;7.650;2023-05-10T05:35:20;5.67;;;5.17;;
12703;SDS011;6416;52.182;7.650;2023-05-10T05:37:46;5.20;;;4.73;;
12703;SDS011;6416;52.182;7.650;2023-05-10T05:40:14;5.88;;;5.28;;
12703;SDS011;6416;52.182;7.650;2023-05-10T05:42:40;5.97;;;5.47;;
12703;SDS011;6416;52.182;7.650;2023-05-10T05:45:05;6.03;;;5.53;;
12703;SDS011;6416;52.182;7.650;2023-05-10T05:47:31;5.93;;;5.40;;
12703;SDS011;6416;52.182;7.650;2023-05-10T05:49:57;6.07;;;5.57;;
12703;SDS011;6416;52.182;7.650;2023-05-10T05:52:22;6.07;;;5.47;;
12703;SDS011;6416;52.182;7.650;2023-05-10T05:54:48;9.40;;;6.45;;
12703;SDS011;6416;52.182;7.650;2023-05-10T05:57:13;5.95;;;5.45;;
12703;SDS011;6416;52.182;7.650;2023-05-10T05:59:38;6.23;;;5.63;;
12703;SDS011;6416;52.182;7.650;2023-05-10T06:02:04;6.60;;;6.00;;
12703;SDS011;6416;52.182;7.650;2023-05-10T06:04:30;6.70;;;6.03;;
12703;SDS011;6416;52.182;7.650;2023-05-10T06:06:55;6.50;;;6.00;;
12703;SDS011;6416;52.182;7.650;2023-05-10T06:09:21;7.20;;;6.50;;
12703;SDS011;6416;52.182;7.650;2023-05-10T06:11:46;6.83;;;6.23;;
12703;SDS011;6416;52.182;7.650;2023-05-10T06:14:12;6.80;;;6.20;;
12703;SDS011;6416;52.182;7.650;2023-05-10T06:16:37;7.20;;;6.50;;
12703;SDS011;6416;52.182;7.650;2023-05-10T06:19:02;7.68;;;6.97;;
12703;SDS011;6416;52.182;7.650;2023-05-10T06:21:28;7.17;;;6.53;;
12703;SDS011;6416;52.182;7.650;2023-05-10T06:23:54;7.93;;;6.82;;
12703;SDS011;6416;52.182;7.650;2023-05-10T06:26:19;7.93;;;7.18;;
12703;SDS011;6416;52.182;7.650;2023-05-10T06:28:45;8.27;;;7.47;;
12703;SDS011;6416;52.182;7.650;2023-05-10T06:31:10;8.88;;;7.97;;
12703;SDS011;6416;52.182;7.650;2023-05-10T06:33:36;8.45;;;7.32;;
12703;SDS011;6416;52.182;7.650;2023-05-10T06:36:01;9.10;;;8.20;;
12703;SDS011;6416;52.182;7.650;2023-05-10T06:38:27;10.73;;;8.40;;
12703;SDS011;6416;52.182;7.650;2023-05-10T06:40:52;10.10;;;8.70;;
12703;SDS011;6416;52.182;7.650;2023-05-10T06:43:18;10.90;;;9.63;;
12703;SDS011;6416;52.182;7.650;2023-05-10T06:45:43;11.15;;;9.98;;
12703;SDS011;6416;52.182;7.650;2023-05-10T06:48:09;10.73;;;9.60;;
12703;SDS011;6416;52.182;7.650;2023-05-10T06:50:34;11.85;;;10.10;;
12703;SDS011;6416;52.182;7.650;2023-05-10T06:53:00;12.93;;;9.88;;
12703;SDS011;6416;52.182;7.650;2023-05-10T06:55:25;10.95;;;9.82;;
12703;SDS011;6416;52.182;7.650;2023-05-10T06:57:51;12.15;;;10.90;;
12703;SDS011;6416;52.182;7.650;2023-05-10T07:00:17;17.52;;;11.55;;
12703;SDS011;6416;52.182;7.650;2023-05-10T07:02:43;15.30;;;11.70;;
12703;SDS011;6416;52.182;7.650;2023-05-10T07:05:09;14.02;;;12.43;;
12703;SDS011;6416;52.182;7.650;2023-05-10T07:07:34;14.77;;;12.38;;
12703;SDS011;6416;52.182;7.650;2023-05-10T07:10:00;15.32;;;13.25;;
12703;SDS011;6416;52.182;7.650;2023-05-10T07:12:26;15.95;;;13.40;;
12703;SDS011;6416;52.182;7.650;2023-05-10T07:14:52;18.70;;;13.02;;
12703;SDS011;6416;52.182;7.650;2023-05-10T07:17:18;17.38;;;14.18;;
12703;SDS011;6416;52.182;7.650;2023-05-10T07:19:43;19.83;;;14.75;;
12703;SDS011;6416;52.182;7.650;2023-05-10T07:22:09;17.75;;;14.00;;
12703;SDS011;6416;52.182;7.650;2023-05-10T07:24:34;18.23;;;14.98;;
12703;SDS011;6416;52.182;7.650;2023-05-10T07:27:00;19.70;;;14.80;;
12703;SDS011;6416;52.182;7.650;2023-05-10T07:29:26;20.13;;;14.88;;
12703;SDS011;6416;52.182;7.650;2023-05-10T07:31:51;19.90;;;15.90;;
12703;SDS011;6416;52.182;7.650;2023-05-10T07:34:17;20.52;;;16.10;;
12703;SDS011;6416;52.182;7.650;2023-05-10T07:36:42;20.42;;;15.90;;
12703;SDS011;6416;52.182;7.650;2023-05-10T07:39:08;19.38;;;15.85;;
12703;SDS011;6416;52.182;7.650;2023-05-10T07:41:33;21.65;;;16.45;;
12703;SDS011;6416;52.182;7.650;2023-05-10T07:43:59;19.77;;;15.65;;
12703;SDS011;6416;52.182;7.650;2023-05-10T07:46:27;19.40;;;16.27;;
12703;SDS011;6416;52.182;7.650;2023-05-10T07:48:53;22.83;;;16.55;;
12703;SDS011;6416;52.182;7.650;2023-05-10T07:51:18;19.33;;;15.38;;
12703;SDS011;6416;52.182;7.650;2023-05-10T07:53:44;18.95;;;16.02;;
12703;SDS011;6416;52.182;7.650;2023-05-10T07:56:30;19.38;;;15.93;;
12703;SDS011;6416;52.182;7.650;2023-05-10T07:58:56;18.88;;;15.30;;
12703;SDS011;6416;52.182;7.650;2023-05-10T08:01:22;20.65;;;16.70;;
12703;SDS011;6416;52.182;7.650;2023-05-10T08:03:47;18.25;;;15.38;;
12703;SDS011;6416;52.182;7.650;2023-05-10T08:06:17;19.92;;;16.27;;
12703;SDS011;6416;52.182;7.650;2023-05-10T08:08:43;20.42;;;16.40;;
12703;SDS011;6416;52.182;7.650;2023-05-10T08:11:10;21.42;;;16.98;;
12703;SDS011;6416;52.182;7.650;2023-05-10T08:13:35;18.80;;;16.02;;
12703;SDS011;6416;52.182;7.650;2023-05-10T08:16:01;20.25;;;16.00;;
12703;SDS011;6416;52.182;7.650;2023-05-10T08:18:26;17.90;;;15.20;;
12703;SDS011;6416;52.182;7.650;2023-05-10T08:20:52;18.85;;;16.20;;
12703;SDS011;6416;52.182;7.650;2023-05-10T08:23:17;17.88;;;15.45;;
12703;SDS011;6416;52.182;7.650;2023-05-10T08:25:43;18.65;;;15.88;;
12703;SDS011;6416;52.182;7.650;2023-05-10T08:28:08;16.98;;;14.60;;
12703;SDS011;6416;52.182;7.650;2023-05-10T08:30:34;18.05;;;15.38;;
12703;SDS011;6416;52.182;7.650;2023-05-10T08:32:59;17.33;;;14.80;;
12703;SDS011;6416;52.182;7.650;2023-05-10T08:35:25;19.00;;;14.88;;
12703;SDS011;6416;52.182;7.650;2023-05-10T08:37:50;17.10;;;14.75;;
12703;SDS011;6416;52.182;7.650;2023-05-10T08:40:16;17.60;;;14.52;;
12703;SDS011;6416;52.182;7.650;2023-05-10T08:42:47;19.05;;;14.85;;
12703;SDS011;6416;52.182;7.650;2023-05-10T08:45:29;16.58;;;14.77;;
12703;SDS011;6416;52.182;7.650;2023-05-10T08:47:58;21.33;;;15.65;;
12703;SDS011;6416;52.182;7.650;2023-05-10T08:50:26;19.83;;;15.80;;
12703;SDS011;6416;52.182;7.650;2023-05-10T08:52:52;18.70;;;14.60;;
12703;SDS011;6416;52.182;7.650;2023-05-10T08:55:22;16.70;;;14.13;;
12703;SDS011;6416;52.182;7.650;2023-05-10T08:57:48;16.17;;;13.38;;
12703;SDS011;6416;52.182;7.650;2023-05-10T09:00:14;17.55;;;14.52;;
12703;SDS011;6416;52.182;7.650;2023-05-10T09:02:40;15.10;;;13.50;;
12703;SDS011;6416;52.182;7.650;2023-05-10T09:05:06;14.35;;;12.25;;
12703;SDS011;6416;52.182;7.650;2023-05-10T09:07:32;14.73;;;13.07;;
12703;SDS011;6416;52.182;7.650;2023-05-10T09:09:58;14.18;;;12.68;;
12703;SDS011;6416;52.182;7.650;2023-05-10T09:12:24;15.18;;;12.98;;
12703;SDS011;6416;52.182;7.650;2023-05-10T09:14:50;14.77;;;13.27;;
12703;SDS011;6416;52.182;7.650;2023-05-10T09:17:17;14.15;;;12.63;;
12703;SDS011;6416;52.182;7.650;2023-05-10T09:19:42;17.80;;;12.95;;
12703;SDS011;6416;52.182;7.650;2023-05-10T09:22:09;15.40;;;13.55;;
12703;SDS011;6416;52.182;7.650;2023-05-10T09:24:35;14.07;;;12.63;;
12703;SDS011;6416;52.182;7.650;2023-05-10T09:27:01;16.05;;;12.43;;
12703;SDS011;6416;52.182;7.650;2023-05-10T09:29:26;17.80;;;13.32;;
12703;SDS011;6416;52.182;7.650;2023-05-10T09:32:04;13.35;;;11.95;;
12703;SDS011;6416;52.182;7.650;2023-05-10T09:34:30;13.93;;;12.35;;
12703;SDS011;6416;52.182;7.650;2023-05-10T09:36:57;14.57;;;12.75;;
12703;SDS011;6416;52.182;7.650;2023-05-10T09:39:33;14.88;;;12.73;;
12703;SDS011;6416;52.182;7.650;2023-05-10T09:42:04;17.42;;;14.15;;
12703;SDS011;6416;52.182;7.650;2023-05-10T09:44:31;16.52;;;13.48;;
12703;SDS011;6416;52.182;7.650;2023-05-10T09:46:57;16.55;;;13.35;;
12703;SDS011;6416;52.182;7.650;2023-05-10T09:49:23;15.23;;;13.38;;
12703;SDS011;6416;52.182;7.650;2023-05-10T09:52:01;17.60;;;13.82;;
12703;SDS011;6416;52.182;7.650;2023-05-10T09:54:32;16.10;;;13.43;;
12703;SDS011;6416;52.182;7.650;2023-05-10T09:56:59;17.50;;;14.15;;
12703;SDS011;6416;52.182;7.650;2023-05-10T09:59:25;15.43;;;12.95;;
12703;SDS011;6416;52.182;7.650;2023-05-10T10:01:52;14.90;;;13.07;;
12703;SDS011;6416;52.182;7.650;2023-05-10T10:04:20;16.48;;;13.20;;
12703;SDS011;6416;52.182;7.650;2023-05-10T10:06:46;15.52;;;14.02;;
12703;SDS011;6416;52.182;7.650;2023-05-10T10:09:11;13.13;;;10.93;;
12703;SDS011;6416;52.182;7.650;2023-05-10T10:11:38;14.18;;;11.40;;
12703;SDS011;6416;52.182;7.650;2023-05-10T10:14:04;12.20;;;10.85;;
12703;SDS011;6416;52.182;7.650;2023-05-10T10:16:30;11.25;;;10.10;;
12703;SDS011;6416;52.182;7.650;2023-05-10T10:18:56;11.10;;;9.20;;
12703;SDS011;6416;52.182;7.650;2023-05-10T10:21:22;11.05;;;9.85;;
12703;SDS011;6416;52.182;7.650;2023-05-10T10:23:49;10.35;;;9.25;;
12703;SDS011;6416;52.182;7.650;2023-05-10T10:26:15;10.73;;;8.95;;
12703;SDS011;6416;52.182;7.650;2023-05-10T10:28:49;10.18;;;8.88;;
12703;SDS011;6416;52.182;7.650;2023-05-10T10:31:27;9.38;;;8.48;;
12703;SDS011;6416;52.182;7.650;2023-05-10T10:34:09;9.73;;;8.25;;
12703;SDS011;6416;52.182;7.650;2023-05-10T10:36:45;10.32;;;9.23;;
12703;SDS011;6416;52.182;7.650;2023-05-10T10:39:11;9.60;;;8.60;;
12703;SDS011;6416;52.182;7.650;2023-05-10T10:41:39;10.77;;;9.35;;
12703;SDS011;6416;52.182;7.650;2023-05-10T10:44:25;9.00;;;8.10;;
12703;SDS011;6416;52.182;7.650;2023-05-10T10:47:04;9.32;;;8.38;;
12703;SDS011;6416;52.182;7.650;2023-05-10T10:49:42;9.70;;;8.30;;
12703;SDS011;6416;52.182;7.650;2023-05-10T10:52:23;8.70;;;7.28;;
12703;SDS011;6416;52.182;7.650;2023-05-10T10:54:54;7.28;;;5.90;;
12703;SDS011;6416;52.182;7.650;2023-05-10T11:00:20;7.38;;;6.65;;
12703;SDS011;6416;52.182;7.650;2023-05-10T11:02:53;7.72;;;6.88;;
12703;SDS011;6416;52.182;7.650;2023-05-10T11:07:55;8.57;;;7.15;;
12703;SDS011;6416;52.182;7.650;2023-05-10T11:10:22;8.20;;;7.13;;
12703;SDS011;6416;52.182;7.650;2023-05-10T11:15:33;7.40;;;6.05;;
12703;SDS011;6416;52.182;7.650;2023-05-10T11:18:18;6.78;;;6.07;;
12703;SDS011;6416;52.182;7.650;2023-05-10T11:20:49;6.70;;;5.63;;
12703;SDS011;6416;52.182;7.650;2023-05-10T11:23:21;5.63;;;5.13;;
12703;SDS011;6416;52.182;7.650;2023-05-10T11:25:47;6.25;;;4.88;;
12703;SDS011;6416;52.182;7.650;2023-05-10T11:28:14;5.85;;;5.35;;
12703;SDS011;6416;52.182;7.650;2023-05-10T11:30:41;5.78;;;5.22;;
12703;SDS011;6416;52.182;7.650;2023-05-10T11:33:09;6.70;;;5.72;;
12703;SDS011;6416;52.182;7.650;2023-05-10T11:35:39;7.82;;;6.25;;
12703;SDS011;6416;52.182;7.650;2023-05-10T11:38:06;9.18;;;6.22;;
12703;SDS011;6416;52.182;7.650;2023-05-10T11:40:35;6.07;;;5.47;;
12703;SDS011;6416;52.182;7.650;2023-05-10T11:43:02;6.10;;;5.50;;
12703;SDS011;6416;52.182;7.650;2023-05-10T11:45:28;6.32;;;5.72;;
12703;SDS011;6416;52.182;7.650;2023-05-10T11:47:55;7.78;;;6.32;;
12703;SDS011;6416;52.182;7.650;2023-05-10T11:50:21;6.57;;;5.60;;
12703;SDS011;6416;52.182;7.650;2023-05-10T11:52:50;5.80;;;5.30;;
12703;SDS011;6416;52.182;7.650;2023-05-10T11:55:22;5.88;;;5.30;;
12703;SDS011;6416;52.182;7.650;2023-05-10T11:57:51;6.47;;;5.88;;
12703;SDS011;6416;52.182;7.650;2023-05-10T12:00:17;6.85;;;5.35;;
12703;SDS011;6416;52.182;7.650;2023-05-10T12:02:42;6.72;;;6.05;;
12703;SDS011;6416;52.182;7.650;2023-05-10T12:05:08;7.15;;;6.47;;
12703;SDS011;6416;52.182;7.650;2023-05-10T12:07:34;8.80;;;6.80;;
12703;SDS011;6416;52.182;7.650;2023-05-10T12:10:07;6.40;;;5.80;;
12703;SDS011;6416;52.182;7.650;2023-05-10T12:12:37;6.93;;;6.32;;
12703;SDS011;6416;52.182;7.650;2023-05-10T12:15:10;6.95;;;6.13;;
12703;SDS011;6416;52.182;7.650;2023-05-10T12:17:37;6.50;;;5.80;;
12703;SDS011;6416;52.182;7.650;2023-05-10T12:20:20;6.53;;;5.90;;
12703;SDS011;6416;52.182;7.650;2023-05-10T12:25:14;6.65;;;6.05;;
12703;SDS011;6416;52.182;7.650;2023-05-10T12:27:39;7.38;;;6.68;;
12703;SDS011;6416;52.182;7.650;2023-05-10T12:30:06;7.70;;;6.25;;
12703;SDS011;6416;52.182;7.650;2023-05-10T12:32:38;7.13;;;6.45;;
12703;SDS011;6416;52.182;7.650;2023-05-10T12:35:05;7.55;;;6.82;;
12703;SDS011;6416;52.182;7.650;2023-05-10T12:37:31;7.40;;;6.60;;
12703;SDS011;6416;52.182;7.650;2023-05-10T12:39:57;6.85;;;5.88;;
12703;SDS011;6416;52.182;7.650;2023-05-10T12:42:22;7.30;;;6.55;;
12703;SDS011;6416;52.182;7.650;2023-05-10T12:44:48;8.50;;;6.85;;
12703;SDS011;6416;52.182;7.650;2023-05-10T12:47:13;8.50;;;7.05;;
12703;SDS011;6416;52.182;7.650;2023-05-10T12:49:39;6.95;;;6.28;;
12703;SDS011;6416;52.182;7.650;2023-05-10T12:52:04;8.93;;;7.60;;
12703;SDS011;6416;52.182;7.650;2023-05-10T12:54:29;10.55;;;7.55;;
12703;SDS011;6416;52.182;7.650;2023-05-10T12:56:55;8.50;;;7.70;;
12703;SDS011;6416;52.182;7.650;2023-05-10T12:59:20;12.00;;;8.20;;
12703;SDS011;6416;52.182;7.650;2023-05-10T13:01:46;8.32;;;7.30;;
12703;SDS011;6416;52.182;7.650;2023-05-10T13:04:11;7.95;;;7.15;;
12703;SDS011;6416;52.182;7.650;2023-05-10T13:06:37;9.15;;;8.25;;
12703;SDS011;6416;52.182;7.650;2023-05-10T13:09:03;8.98;;;7.30;;
12703;SDS011;6416;52.182;7.650;2023-05-10T13:11:28;7.43;;;6.63;;
12703;SDS011;6416;52.182;7.650;2023-05-10T13:13:54;7.43;;;6.72;;
12703;SDS011;6416;52.182;7.650;2023-05-10T13:16:19;6.95;;;6.32;;
12703;SDS011;6416;52.182;7.650;2023-05-10T13:18:44;8.25;;;6.53;;
12703;SDS011;6416;52.182;7.650;2023-05-10T13:21:10;7.38;;;6.68;;
12703;SDS011;6416;52.182;7.650;2023-05-10T13:23:35;7.30;;;6.25;;
12703;SDS011;6416;52.182;7.650;2023-05-10T13:26:01;6.30;;;5.70;;
12703;SDS011;6416;52.182;7.650;2023-05-10T13:28:26;7.30;;;6.53;;
12703;SDS011;6416;52.182;7.650;2023-05-10T13:30:52;6.63;;;5.93;;
12703;SDS011;6416;52.182;7.650;2023-05-10T13:33:17;6.80;;;5.85;;
12703;SDS011;6416;52.182;7.650;2023-05-10T13:35:43;6.75;;;6.00;;
12703;SDS011;6416;52.182;7.650;2023-05-10T13:38:08;6.05;;;5.07;;
12703;SDS011;6416;52.182;7.650;2023-05-10T13:40:34;4.57;;;4.18;;
12703;SDS011;6416;52.182;7.650;2023-05-10T13:42:59;5.45;;;4.90;;
12703;SDS011;6416;52.182;7.650;2023-05-10T13:45:25;5.18;;;4.68;;
12703;SDS011;6416;52.182;7.650;2023-05-10T13:47:50;6.00;;;5.35;;
12703;SDS011;6416;52.182;7.650;2023-05-10T13:50:16;10.50;;;6.50;;
12703;SDS011;6416;52.182;7.650;2023-05-10T13:52:41;6.18;;;5.38;;
12703;SDS011;6416;52.182;7.650;2023-05-10T13:55:07;5.95;;;5.13;;
12703;SDS011;6416;52.182;7.650;2023-05-10T13:57:33;6.45;;;5.85;;
12703;SDS011;6416;52.182;7.650;2023-05-10T13:59:58;5.95;;;5.35;;
12703;SDS011;6416;52.182;7.650;2023-05-10T14:02:24;7.13;;;5.38;;
12703;SDS011;6416;52.182;7.650;2023-05-10T14:04:49;6.40;;;5.80;;
12703;SDS011;6416;52.182;7.650;2023-05-10T14:07:15;7.85;;;5.75;;
12703;SDS011;6416;52.182;7.650;2023-05-10T14:09:40;8.10;;;6.00;;
12703;SDS011;6416;52.182;7.650;2023-05-10T14:12:06;6.45;;;5.75;;
12703;SDS011;6416;52.182;7.650;2023-05-10T14:14:31;8.35;;;6.20;;
12703;SDS011;6416;52.182;7.650;2023-05-10T14:16:57;9.38;;;6.68;;
12703;SDS011;6416;52.182;7.650;2023-05-10T14:19:22;8.70;;;6.45;;
12703;SDS011;6416;52.182;7.650;2023-05-10T14:21:48;7.57;;;6.80;;
12703;SDS011;6416;52.182;7.650;2023-05-10T14:24:16;8.30;;;6.35;;
12703;SDS011;6416;52.182;7.650;2023-05-10T14:26:41;8.45;;;6.95;;
12703;SDS011;6416;52.182;7.650;2023-05-10T14:29:07;7.70;;;6.32;;
12703;SDS011;6416;52.182;7.650;2023-05-10T14:31:32;7.18;;;6.03;;
12703;SDS011;6416;52.182;7.650;2023-05-10T14:33:58;6.75;;;5.82;;
12703;SDS011;6416;52.182;7.650;2023-05-10T14:36:23;6.90;;;6.18;;
12703;SDS011;6416;52.182;7.650;2023-05-10T14:38:49;6.47;;;5.88;;
12703;SDS011;6416;52.182;7.650;2023-05-10T14:41:15;6.95;;;6.25;;
12703;SDS011;6416;52.182;7.650;2023-05-10T14:43:41;6.55;;;5.88;;
12703;SDS011;6416;52.182;7.650;2023-05-10T14:46:06;6.75;;;5.80;;
12703;SDS011;6416;52.182;7.650;2023-05-10T14:48:32;5.90;;;5.28;;
12703;SDS011;6416;52.182;7.650;2023-05-10T14:50:57;5.97;;;4.95;;
12703;SDS011;6416;52.182;7.650;2023-05-10T14:53:22;24.83;;;10.32;;
12703;SDS011;6416;52.182;7.650;2023-05-10T14:55:48;10.15;;;6.90;;
12703;SDS011;6416;52.182;7.650;2023-05-10T14:58:13;7.50;;;5.45;;
12703;SDS011;6416;52.182;7.650;2023-05-10T15:00:40;6.05;;;5.20;;
12703;SDS011;6416;52.182;7.650;2023-05-10T15:03:05;7.15;;;5.50;;
12703;SDS011;6416;52.182;7.650;2023-05-10T15:05:31;5.82;;;5.15;;
12703;SDS011;6416;52.182;7.650;2023-05-10T15:07:56;5.35;;;4.85;;
12703;SDS011;6416;52.182;7.650;2023-05-10T15:10:22;4.35;;;3.95;;
12703;SDS011;6416;52.182;7.650;2023-05-10T15:12:47;4.70;;;4.22;;
12703;SDS011;6416;52.182;7.650;2023-05-10T15:15:13;7.60;;;5.10;;
12703;SDS011;6416;52.182;7.650;2023-05-10T15:17:38;5.35;;;4.53;;
12703;SDS011;6416;52.182;7.650;2023-05-10T15:20:04;6.05;;;5.32;;
12703;SDS011;6416;52.182;7.650;2023-05-10T15:22:30;8.55;;;6.28;;
12703;SDS011;6416;52.182;7.650;2023-05-10T15:24:55;6.60;;;6.00;;
12703;SDS011;6416;52.182;7.650;2023-05-10T15:27:21;6.30;;;5.75;;